sensor_id;sensor_type;location;lat;lon;timestamp;temperature;humidity
37998;DHT22;24079;51.824;4.682;2023-09-07T00:01:49;22.60;99.90
37998;DHT22;24079;51.824;4.682;2023-09-07T00:04:18;22.60;99.90
37998;DHT22;24079;51.824;4.682;2023-09-07T00:06:44;22.60;99.90
37998;DHT22;24079;51.824;4.682;2023-09-07T00:09:10;22.60;99.90
37998;DHT22;24079;51.824;4.682;2023-09-07T00:11:37;22.60;99.90
37998;DHT22;24079;51.824;4.682;2023-09-07T00:14:03;22.60;99.90
37998;DHT22;24079;51.824;4.682;2023-09-07T00:16:31;22.60;99.90
37998;DHT22;24079;51.824;4.682;2023-09-07T00:19:01;22.60;99.90
37998;DHT22;24079;51.824;4.682;2023-09-07T00:21:28;22.60;99.90
37998;DHT22;24079;51.824;4.682;2023-09-07T00:23:54;22.60;99.90
37998;DHT22;24079;51.824;4.682;2023-09-07T00:26:20;22.70;99.90
37998;DHT22;24079;51.824;4.682;2023-09-07T00:28:46;22.60;99.90
37998;DHT22;24079;51.824;4.682;2023-09-07T00:31:12;22.60;99.90
37998;DHT22;24079;51.824;4.682;2023-09-07T00:33:37;22.60;99.90
37998;DHT22;24079;51.824;4.682;2023-09-07T00:36:03;22.60;99.90
37998;DHT22;24079;51.824;4.682;2023-09-07T00:38:29;22.60;99.90
37998;DHT22;24079;51.824;4.682;2023-09-07T00:40:55;22.60;99.90
37998;DHT22;24079;51.824;4.682;2023-09-07T00:43:21;22.60;99.90
37998;DHT22;24079;51.824;4.682;2023-09-07T00:45:46;22.60;99.90
37998;DHT22;24079;51.824;4.682;2023-09-07T00:48:14;22.60;99.90
37998;DHT22;24079;51.824;4.682;2023-09-07T00:50:40;22.60;99.90
37998;DHT22;24079;51.824;4.682;2023-09-07T00:53:06;22.50;99.90
37998;DHT22;24079;51.824;4.682;2023-09-07T00:55:33;22.40;99.90
37998;DHT22;24079;51.824;4.682;2023-09-07T00:58:01;22.40;99.90
37998;DHT22;24079;51.824;4.682;2023-09-07T01:00:29;22.40;99.90
37998;DHT22;24079;51.824;4.682;2023-09-07T01:02:55;22.40;99.90
37998;DHT22;24079;51.824;4.682;2023-09-07T01:05:30;22.40;99.90
37998;DHT22;24079;51.824;4.682;2023-09-07T01:08:03;22.40;99.90
37998;DHT22;24079;51.824;4.682;2023-09-07T01:10:30;22.30;99.90
37998;DHT22;24079;51.824;4.682;2023-09-07T01:12:56;22.30;99.90
37998;DHT22;24079;51.824;4.682;2023-09-07T01:15:21;22.30;99.90
37998;DHT22;24079;51.824;4.682;2023-09-07T01:17:47;22.30;99.90
37998;DHT22;24079;51.824;4.682;2023-09-07T01:20:16;22.20;99.90
37998;DHT22;24079;51.824;4.682;2023-09-07T01:22:42;22.20;99.90
37998;DHT22;24079;51.824;4.682;2023-09-07T01:25:09;22.10;99.90
37998;DHT22;24079;51.824;4.682;2023-09-07T01:27:35;22.10;99.90
37998;DHT22;24079;51.824;4.682;2023-09-07T01:30:01;22.10;99.90
37998;DHT22;24079;51.824;4.682;2023-09-07T01:32:28;22.10;99.90
37998;DHT22;24079;51.824;4.682;2023-09-07T01:34:57;22.00;99.90
37998;DHT22;24079;51.824;4.682;2023-09-07T01:37:23;22.00;99.90
37998;DHT22;24079;51.824;4.682;2023-09-07T01:39:49;21.90;99.90
37998;DHT22;24079;51.824;4.682;2023-09-07T01:42:15;21.90;99.90
37998;DHT22;24079;51.824;4.682;2023-09-07T01:44:41;21.90;99.90
37998;DHT22;24079;51.824;4.682;2023-09-07T01:47:08;21.90;99.90
37998;DHT22;24079;51.824;4.682;2023-09-07T01:49:34;21.80;99.90
37998;DHT22;24079;51.824;4.682;2023-09-07T01:52:01;21.80;99.90
37998;DHT22;24079;51.824;4.682;2023-09-07T01:54:27;21.80;99.90
37998;DHT22;24079;51.824;4.682;2023-09-07T01:56:54;21.70;99.90
37998;DHT22;24079;51.824;4.682;2023-09-07T01:59:20;21.70;99.90
37998;DHT22;24079;51.824;4.682;2023-09-07T02:01:46;21.70;99.90
37998;DHT22;24079;51.824;4.682;2023-09-07T02:04:12;21.60;99.90
37998;DHT22;24079;51.824;4.682;2023-09-07T02:06:38;21.60;99.90
37998;DHT22;24079;51.824;4.682;2023-09-07T02:09:05;21.60;99.90
37998;DHT22;24079;51.824;4.682;2023-09-07T02:11:31;21.60;99.90
37998;DHT22;24079;51.824;4.682;2023-09-07T02:13:57;21.50;99.90
37998;DHT22;24079;51.824;4.682;2023-09-07T02:16:23;21.40;99.90
37998;DHT22;24079;51.824;4.682;2023-09-07T02:18:50;21.40;99.90
37998;DHT22;24079;51.824;4.682;2023-09-07T02:21:16;21.40;99.90
37998;DHT22;24079;51.824;4.682;2023-09-07T02:23:42;21.30;99.90
37998;DHT22;24079;51.824;4.682;2023-09-07T02:26:08;21.20;99.90
37998;DHT22;24079;51.824;4.682;2023-09-07T02:28:34;21.20;99.90
37998;DHT22;24079;51.824;4.682;2023-09-07T02:31:05;21.10;99.90
37998;DHT22;24079;51.824;4.682;2023-09-07T02:33:32;21.00;99.90
37998;DHT22;24079;51.824;4.682;2023-09-07T02:35:58;21.00;99.90
37998;DHT22;24079;51.824;4.682;2023-09-07T02:38:24;20.80;99.90
37998;DHT22;24079;51.824;4.682;2023-09-07T02:40:50;20.80;99.90
37998;DHT22;24079;51.824;4.682;2023-09-07T02:43:17;20.80;99.90
37998;DHT22;24079;51.824;4.682;2023-09-07T02:45:43;20.70;99.90
37998;DHT22;24079;51.824;4.682;2023-09-07T02:48:09;20.70;99.90
37998;DHT22;24079;51.824;4.682;2023-09-07T02:50:35;20.60;99.90
37998;DHT22;24079;51.824;4.682;2023-09-07T02:53:01;20.60;99.90
37998;DHT22;24079;51.824;4.682;2023-09-07T02:55:28;20.60;99.90
37998;DHT22;24079;51.824;4.682;2023-09-07T02:57:56;20.50;99.90
37998;DHT22;24079;51.824;4.682;2023-09-07T03:00:22;20.40;99.90
37998;DHT22;24079;51.824;4.682;2023-09-07T03:02:49;20.40;99.90
37998;DHT22;24079;51.824;4.682;2023-09-07T03:05:16;20.30;99.90
37998;DHT22;24079;51.824;4.682;2023-09-07T03:07:44;20.20;99.90
37998;DHT22;24079;51.824;4.682;2023-09-07T03:10:11;20.20;99.90
37998;DHT22;24079;51.824;4.682;2023-09-07T03:12:37;20.10;99.90
37998;DHT22;24079;51.824;4.682;2023-09-07T03:15:04;20.10;99.90
37998;DHT22;24079;51.824;4.682;2023-09-07T03:17:30;20.00;99.90
37998;DHT22;24079;51.824;4.682;2023-09-07T03:19:56;20.00;99.90
37998;DHT22;24079;51.824;4.682;2023-09-07T03:22:23;20.00;99.90
37998;DHT22;24079;51.824;4.682;2023-09-07T03:24:50;20.00;99.90
37998;DHT22;24079;51.824;4.682;2023-09-07T03:27:17;19.90;99.90
37998;DHT22;24079;51.824;4.682;2023-09-07T03:29:44;19.90;99.90
37998;DHT22;24079;51.824;4.682;2023-09-07T03:32:10;19.80;99.90
37998;DHT22;24079;51.824;4.682;2023-09-07T03:34:36;19.90;99.90
37998;DHT22;24079;51.824;4.682;2023-09-07T03:37:02;19.80;99.90
37998;DHT22;24079;51.824;4.682;2023-09-07T03:39:32;19.70;99.90
37998;DHT22;24079;51.824;4.682;2023-09-07T03:41:58;19.70;99.90
37998;DHT22;24079;51.824;4.682;2023-09-07T03:44:24;19.60;99.90
37998;DHT22;24079;51.824;4.682;2023-09-07T03:46:51;19.60;99.90
37998;DHT22;24079;51.824;4.682;2023-09-07T03:49:17;19.60;99.90
37998;DHT22;24079;51.824;4.682;2023-09-07T03:51:43;19.60;99.90
37998;DHT22;24079;51.824;4.682;2023-09-07T03:54:09;19.60;99.90
37998;DHT22;24079;51.824;4.682;2023-09-07T03:56:35;19.50;99.90
37998;DHT22;24079;51.824;4.682;2023-09-07T03:59:01;19.50;99.90
37998;DHT22;24079;51.824;4.682;2023-09-07T04:01:26;19.50;99.90
37998;DHT22;24079;51.824;4.682;2023-09-07T04:03:53;19.50;99.90
37998;DHT22;24079;51.824;4.682;2023-09-07T04:06:18;19.50;99.90
37998;DHT22;24079;51.824;4.682;2023-09-07T04:08:45;19.50;99.90
37998;DHT22;24079;51.824;4.682;2023-09-07T04:11:11;19.50;99.90
37998;DHT22;24079;51.824;4.682;2023-09-07T04:13:36;19.40;99.90
37998;DHT22;24079;51.824;4.682;2023-09-07T04:16:02;19.50;99.90
37998;DHT22;24079;51.824;4.682;2023-09-07T04:18:28;19.50;99.90
37998;DHT22;24079;51.824;4.682;2023-09-07T04:21:05;19.50;99.90
37998;DHT22;24079;51.824;4.682;2023-09-07T04:23:31;19.50;99.90
37998;DHT22;24079;51.824;4.682;2023-09-07T04:26:11;19.50;99.90
37998;DHT22;24079;51.824;4.682;2023-09-07T04:28:38;19.50;99.90
37998;DHT22;24079;51.824;4.682;2023-09-07T04:31:05;19.50;99.90
37998;DHT22;24079;51.824;4.682;2023-09-07T04:33:31;19.50;99.90
37998;DHT22;24079;51.824;4.682;2023-09-07T04:36:08;19.50;99.90
37998;DHT22;24079;51.824;4.682;2023-09-07T04:38:34;19.50;99.90
37998;DHT22;24079;51.824;4.682;2023-09-07T04:41:07;19.50;99.90
37998;DHT22;24079;51.824;4.682;2023-09-07T04:43:33;19.50;99.90
37998;DHT22;24079;51.824;4.682;2023-09-07T04:45:59;19.50;99.90
37998;DHT22;24079;51.824;4.682;2023-09-07T04:48:24;19.50;99.90
37998;DHT22;24079;51.824;4.682;2023-09-07T04:51:04;19.50;99.90
37998;DHT22;24079;51.824;4.682;2023-09-07T04:53:34;19.50;99.90
37998;DHT22;24079;51.824;4.682;2023-09-07T04:56:01;19.50;99.90
37998;DHT22;24079;51.824;4.682;2023-09-07T04:58:27;19.50;99.90
37998;DHT22;24079;51.824;4.682;2023-09-07T05:00:54;19.50;99.90
37998;DHT22;24079;51.824;4.682;2023-09-07T05:03:19;19.50;99.90
37998;DHT22;24079;51.824;4.682;2023-09-07T05:05:51;19.60;99.90
37998;DHT22;24079;51.824;4.682;2023-09-07T05:08:16;19.50;99.90
37998;DHT22;24079;51.824;4.682;2023-09-07T05:10:42;19.60;99.90
37998;DHT22;24079;51.824;4.682;2023-09-07T05:13:08;19.60;99.90
37998;DHT22;24079;51.824;4.682;2023-09-07T05:15:34;19.70;99.90
37998;DHT22;24079;51.824;4.682;2023-09-07T05:17:59;19.70;99.90
37998;DHT22;24079;51.824;4.682;2023-09-07T05:20:25;19.80;99.90
37998;DHT22;24079;51.824;4.682;2023-09-07T05:22:52;19.80;99.90
37998;DHT22;24079;51.824;4.682;2023-09-07T05:25:18;19.80;99.90
37998;DHT22;24079;51.824;4.682;2023-09-07T05:27:45;19.80;99.90
37998;DHT22;24079;51.824;4.682;2023-09-07T05:30:11;19.90;99.90
37998;DHT22;24079;51.824;4.682;2023-09-07T05:32:37;19.90;99.90
37998;DHT22;24079;51.824;4.682;2023-09-07T05:35:02;20.00;99.90
37998;DHT22;24079;51.824;4.682;2023-09-07T05:37:28;20.00;99.90
37998;DHT22;24079;51.824;4.682;2023-09-07T05:39:54;20.00;99.90
37998;DHT22;24079;51.824;4.682;2023-09-07T05:42:20;20.10;99.90
37998;DHT22;24079;51.824;4.682;2023-09-07T05:44:46;20.10;99.90
37998;DHT22;24079;51.824;4.682;2023-09-07T05:47:13;20.10;99.90
37998;DHT22;24079;51.824;4.682;2023-09-07T05:49:39;20.10;99.90
37998;DHT22;24079;51.824;4.682;2023-09-07T05:52:05;20.10;99.90
37998;DHT22;24079;51.824;4.682;2023-09-07T05:54:37;20.20;99.90
37998;DHT22;24079;51.824;4.682;2023-09-07T05:57:03;20.20;99.90
37998;DHT22;24079;51.824;4.682;2023-09-07T05:59:30;20.30;99.90
37998;DHT22;24079;51.824;4.682;2023-09-07T06:01:56;20.40;99.90
37998;DHT22;24079;51.824;4.682;2023-09-07T06:04:22;20.40;99.90
37998;DHT22;24079;51.824;4.682;2023-09-07T06:06:48;20.40;99.90
37998;DHT22;24079;51.824;4.682;2023-09-07T06:09:14;20.50;99.90
37998;DHT22;24079;51.824;4.682;2023-09-07T06:11:40;20.50;99.90
37998;DHT22;24079;51.824;4.682;2023-09-07T06:14:07;20.50;99.90
37998;DHT22;24079;51.824;4.682;2023-09-07T06:16:33;20.60;99.90
37998;DHT22;24079;51.824;4.682;2023-09-07T06:18:59;20.60;99.90
37998;DHT22;24079;51.824;4.682;2023-09-07T06:21:25;20.60;99.90
37998;DHT22;24079;51.824;4.682;2023-09-07T06:23:51;20.70;99.90
37998;DHT22;24079;51.824;4.682;2023-09-07T06:26:17;20.70;99.90
37998;DHT22;24079;51.824;4.682;2023-09-07T06:28:45;20.80;99.90
37998;DHT22;24079;51.824;4.682;2023-09-07T06:31:11;20.90;99.90
37998;DHT22;24079;51.824;4.682;2023-09-07T06:33:37;21.20;99.90
37998;DHT22;24079;51.824;4.682;2023-09-07T06:36:03;21.40;99.90
37998;DHT22;24079;51.824;4.682;2023-09-07T06:38:29;21.70;99.90
37998;DHT22;24079;51.824;4.682;2023-09-07T06:40:56;22.10;99.90
37998;DHT22;24079;51.824;4.682;2023-09-07T06:43:22;22.30;99.90
37998;DHT22;24079;51.824;4.682;2023-09-07T06:45:48;22.50;99.90
37998;DHT22;24079;51.824;4.682;2023-09-07T06:48:14;22.80;99.90
37998;DHT22;24079;51.824;4.682;2023-09-07T06:50:40;23.40;99.90
37998;DHT22;24079;51.824;4.682;2023-09-07T06:53:07;23.60;99.90
37998;DHT22;24079;51.824;4.682;2023-09-07T06:55:34;23.60;99.90
37998;DHT22;24079;51.824;4.682;2023-09-07T06:58:00;23.50;99.90
37998;DHT22;24079;51.824;4.682;2023-09-07T07:00:27;23.40;99.90
37998;DHT22;24079;51.824;4.682;2023-09-07T07:02:53;23.50;99.90
37998;DHT22;24079;51.824;4.682;2023-09-07T07:05:19;23.40;99.90
37998;DHT22;24079;51.824;4.682;2023-09-07T07:07:46;23.50;99.90
37998;DHT22;24079;51.824;4.682;2023-09-07T07:10:13;24.10;99.90
37998;DHT22;24079;51.824;4.682;2023-09-07T07:12:39;24.60;99.90
37998;DHT22;24079;51.824;4.682;2023-09-07T07:15:05;25.00;99.90
37998;DHT22;24079;51.824;4.682;2023-09-07T07:17:33;25.10;99.90
37998;DHT22;24079;51.824;4.682;2023-09-07T07:20:05;25.50;99.90
37998;DHT22;24079;51.824;4.682;2023-09-07T07:22:32;25.60;99.90
37998;DHT22;24079;51.824;4.682;2023-09-07T07:25:01;25.40;99.90
37998;DHT22;24079;51.824;4.682;2023-09-07T07:27:31;25.40;99.90
37998;DHT22;24079;51.824;4.682;2023-09-07T07:29:57;25.30;99.90
37998;DHT22;24079;51.824;4.682;2023-09-07T07:32:24;25.40;99.90
37998;DHT22;24079;51.824;4.682;2023-09-07T07:34:50;26.20;99.90
37998;DHT22;24079;51.824;4.682;2023-09-07T07:37:16;27.00;99.90
37998;DHT22;24079;51.824;4.682;2023-09-07T07:39:42;27.90;99.90
37998;DHT22;24079;51.824;4.682;2023-09-07T07:42:08;28.50;99.90
37998;DHT22;24079;51.824;4.682;2023-09-07T07:44:34;28.90;99.90
37998;DHT22;24079;51.824;4.682;2023-09-07T07:47:00;29.00;99.90
37998;DHT22;24079;51.824;4.682;2023-09-07T07:49:26;29.40;99.90
37998;DHT22;24079;51.824;4.682;2023-09-07T07:51:53;29.80;99.90
37998;DHT22;24079;51.824;4.682;2023-09-07T07:54:21;29.90;99.90
37998;DHT22;24079;51.824;4.682;2023-09-07T07:56:48;29.90;99.90
37998;DHT22;24079;51.824;4.682;2023-09-07T07:59:14;30.20;99.90
37998;DHT22;24079;51.824;4.682;2023-09-07T08:01:40;30.20;99.90
37998;DHT22;24079;51.824;4.682;2023-09-07T08:04:08;30.40;99.90
37998;DHT22;24079;51.824;4.682;2023-09-07T08:06:34;30.40;99.90
37998;DHT22;24079;51.824;4.682;2023-09-07T08:09:00;30.40;99.90
37998;DHT22;24079;51.824;4.682;2023-09-07T08:11:27;30.50;99.90
37998;DHT22;24079;51.824;4.682;2023-09-07T08:13:53;30.30;99.90
37998;DHT22;24079;51.824;4.682;2023-09-07T08:16:19;30.20;99.90
37998;DHT22;24079;51.824;4.682;2023-09-07T08:18:45;30.10;99.90
37998;DHT22;24079;51.824;4.682;2023-09-07T08:21:14;30.20;99.90
37998;DHT22;24079;51.824;4.682;2023-09-07T08:23:40;30.00;99.90
37998;DHT22;24079;51.824;4.682;2023-09-07T08:26:06;30.00;99.90
37998;DHT22;24079;51.824;4.682;2023-09-07T08:28:35;30.10;99.90
37998;DHT22;24079;51.824;4.682;2023-09-07T08:31:01;30.20;99.90
37998;DHT22;24079;51.824;4.682;2023-09-07T08:33:31;30.10;99.90
37998;DHT22;24079;51.824;4.682;2023-09-07T08:36:06;30.10;99.90
37998;DHT22;24079;51.824;4.682;2023-09-07T08:38:32;29.90;99.90
37998;DHT22;24079;51.824;4.682;2023-09-07T08:41:01;29.70;99.90
37998;DHT22;24079;51.824;4.682;2023-09-07T08:43:33;29.50;99.90
37998;DHT22;24079;51.824;4.682;2023-09-07T08:46:14;29.50;99.90
37998;DHT22;24079;51.824;4.682;2023-09-07T08:48:42;29.60;99.90
37998;DHT22;24079;51.824;4.682;2023-09-07T08:51:09;29.70;99.90
37998;DHT22;24079;51.824;4.682;2023-09-07T08:53:39;29.70;99.90
37998;DHT22;24079;51.824;4.682;2023-09-07T08:56:07;29.60;99.90
37998;DHT22;24079;51.824;4.682;2023-09-07T08:58:36;29.50;99.90
37998;DHT22;24079;51.824;4.682;2023-09-07T09:01:01;29.40;99.90
37998;DHT22;24079;51.824;4.682;2023-09-07T09:03:27;29.30;99.90
37998;DHT22;24079;51.824;4.682;2023-09-07T09:05:55;29.40;99.90
37998;DHT22;24079;51.824;4.682;2023-09-07T09:08:21;29.70;99.90
37998;DHT22;24079;51.824;4.682;2023-09-07T09:10:59;29.50;99.90
37998;DHT22;24079;51.824;4.682;2023-09-07T09:13:30;29.40;99.90
37998;DHT22;24079;51.824;4.682;2023-09-07T09:15:55;29.40;99.90
37998;DHT22;24079;51.824;4.682;2023-09-07T09:18:21;29.50;99.90
37998;DHT22;24079;51.824;4.682;2023-09-07T09:20:48;29.50;99.90
37998;DHT22;24079;51.824;4.682;2023-09-07T09:23:13;29.60;99.90
37998;DHT22;24079;51.824;4.682;2023-09-07T09:25:41;29.70;99.90
37998;DHT22;24079;51.824;4.682;2023-09-07T09:28:09;29.70;99.90
37998;DHT22;24079;51.824;4.682;2023-09-07T09:30:35;29.60;99.90
37998;DHT22;24079;51.824;4.682;2023-09-07T09:33:01;29.70;99.90
37998;DHT22;24079;51.824;4.682;2023-09-07T09:35:28;29.70;99.90
37998;DHT22;24079;51.824;4.682;2023-09-07T09:37:55;29.90;99.90
37998;DHT22;24079;51.824;4.682;2023-09-07T09:40:21;29.70;99.90
37998;DHT22;24079;51.824;4.682;2023-09-07T09:42:46;29.90;99.90
37998;DHT22;24079;51.824;4.682;2023-09-07T09:45:14;30.00;99.90
37998;DHT22;24079;51.824;4.682;2023-09-07T09:47:41;30.00;99.90
37998;DHT22;24079;51.824;4.682;2023-09-07T09:50:10;29.90;99.90
37998;DHT22;24079;51.824;4.682;2023-09-07T09:52:37;29.90;99.90
37998;DHT22;24079;51.824;4.682;2023-09-07T09:55:05;30.10;99.90
37998;DHT22;24079;51.824;4.682;2023-09-07T09:57:36;30.00;99.90
37998;DHT22;24079;51.824;4.682;2023-09-07T10:00:04;30.10;99.90
37998;DHT22;24079;51.824;4.682;2023-09-07T10:05:36;29.90;99.90
37998;DHT22;24079;51.824;4.682;2023-09-07T15:10:29;30.20;99.90
37998;DHT22;24079;51.824;4.682;2023-09-07T15:12:55;30.20;99.90
37998;DHT22;24079;51.824;4.682;2023-09-07T15:15:21;30.20;99.90
37998;DHT22;24079;51.824;4.682;2023-09-07T15:17:47;30.20;99.90
37998;DHT22;24079;51.824;4.682;2023-09-07T15:20:14;30.20;99.90
37998;DHT22;24079;51.824;4.682;2023-09-07T15:22:40;30.10;99.90
37998;DHT22;24079;51.824;4.682;2023-09-07T15:25:06;30.10;99.90
37998;DHT22;24079;51.824;4.682;2023-09-07T15:27:33;30.10;99.90
37998;DHT22;24079;51.824;4.682;2023-09-07T15:29:59;30.10;99.90
37998;DHT22;24079;51.824;4.682;2023-09-07T15:32:25;30.10;99.90
37998;DHT22;24079;51.824;4.682;2023-09-07T15:34:51;30.00;99.90
37998;DHT22;24079;51.824;4.682;2023-09-07T15:37:17;30.00;99.90
37998;DHT22;24079;51.824;4.682;2023-09-07T15:39:43;30.00;99.90
37998;DHT22;24079;51.824;4.682;2023-09-07T15:42:10;30.00;99.90
37998;DHT22;24079;51.824;4.682;2023-09-07T15:44:36;30.00;99.90
37998;DHT22;24079;51.824;4.682;2023-09-07T15:47:02;30.00;99.90
37998;DHT22;24079;51.824;4.682;2023-09-07T15:49:29;30.00;99.90
37998;DHT22;24079;51.824;4.682;2023-09-07T15:51:55;29.90;99.90
37998;DHT22;24079;51.824;4.682;2023-09-07T15:54:21;29.90;99.90
37998;DHT22;24079;51.824;4.682;2023-09-07T15:56:47;29.90;99.90
37998;DHT22;24079;51.824;4.682;2023-09-07T15:59:13;29.90;99.90
37998;DHT22;24079;51.824;4.682;2023-09-07T16:01:39;29.90;99.90
37998;DHT22;24079;51.824;4.682;2023-09-07T16:04:05;29.80;99.90
37998;DHT22;24079;51.824;4.682;2023-09-07T16:06:31;29.70;99.90
37998;DHT22;24079;51.824;4.682;2023-09-07T16:09:00;29.70;99.90
37998;DHT22;24079;51.824;4.682;2023-09-07T16:11:26;29.70;99.90
37998;DHT22;24079;51.824;4.682;2023-09-07T16:13:52;29.70;99.90
37998;DHT22;24079;51.824;4.682;2023-09-07T16:16:18;29.60;99.90
37998;DHT22;24079;51.824;4.682;2023-09-07T16:18:44;29.60;99.90
37998;DHT22;24079;51.824;4.682;2023-09-07T16:21:10;29.50;99.90
37998;DHT22;24079;51.824;4.682;2023-09-07T16:23:42;29.60;99.90
37998;DHT22;24079;51.824;4.682;2023-09-07T16:26:08;29.50;99.90
37998;DHT22;24079;51.824;4.682;2023-09-07T16:28:34;29.50;99.90
37998;DHT22;24079;51.824;4.682;2023-09-07T16:31:00;29.40;99.90
37998;DHT22;24079;51.824;4.682;2023-09-07T16:33:26;29.50;99.90
37998;DHT22;24079;51.824;4.682;2023-09-07T16:39:45;29.40;99.90
37998;DHT22;24079;51.824;4.682;2023-09-07T16:42:12;29.40;99.90
37998;DHT22;24079;51.824;4.682;2023-09-07T16:44:38;29.40;99.90
37998;DHT22;24079;51.824;4.682;2023-09-07T16:47:05;29.30;99.90
37998;DHT22;24079;51.824;4.682;2023-09-07T16:49:31;29.30;99.90
37998;DHT22;24079;51.824;4.682;2023-09-07T16:51:57;29.30;99.90
37998;DHT22;24079;51.824;4.682;2023-09-07T16:54:23;29.30;99.90
37998;DHT22;24079;51.824;4.682;2023-09-07T16:56:49;29.20;99.90
37998;DHT22;24079;51.824;4.682;2023-09-07T16:59:15;29.10;99.90
37998;DHT22;24079;51.824;4.682;2023-09-07T17:01:41;29.10;99.90
37998;DHT22;24079;51.824;4.682;2023-09-07T17:04:07;29.10;99.90
37998;DHT22;24079;51.824;4.682;2023-09-07T17:06:33;29.10;99.90
37998;DHT22;24079;51.824;4.682;2023-09-07T17:08:59;29.00;99.90
37998;DHT22;24079;51.824;4.682;2023-09-07T17:11:26;28.90;99.90
37998;DHT22;24079;51.824;4.682;2023-09-07T17:13:51;28.90;99.90
37998;DHT22;24079;51.824;4.682;2023-09-07T17:16:17;28.70;99.90
37998;DHT22;24079;51.824;4.682;2023-09-07T17:18:43;28.70;99.90
37998;DHT22;24079;51.824;4.682;2023-09-07T17:21:09;28.70;99.90
37998;DHT22;24079;51.824;4.682;2023-09-07T17:23:34;28.70;99.90
37998;DHT22;24079;51.824;4.682;2023-09-07T17:26:03;28.70;99.90
37998;DHT22;24079;51.824;4.682;2023-09-07T17:28:29;28.60;99.90
37998;DHT22;24079;51.824;4.682;2023-09-07T17:30:55;28.50;99.90
37998;DHT22;24079;51.824;4.682;2023-09-07T17:33:20;28.50;99.90
37998;DHT22;24079;51.824;4.682;2023-09-07T17:35:46;28.40;99.90
37998;DHT22;24079;51.824;4.682;2023-09-07T17:38:12;28.40;99.90
37998;DHT22;24079;51.824;4.682;2023-09-07T17:40:37;28.30;99.90
37998;DHT22;24079;51.824;4.682;2023-09-07T17:43:03;28.30;99.90
37998;DHT22;24079;51.824;4.682;2023-09-07T17:45:29;28.20;99.90
37998;DHT22;24079;51.824;4.682;2023-09-07T17:47:54;28.10;99.90
37998;DHT22;24079;51.824;4.682;2023-09-07T17:50:20;28.10;99.90
37998;DHT22;24079;51.824;4.682;2023-09-07T17:52:46;28.00;99.90
37998;DHT22;24079;51.824;4.682;2023-09-07T17:55:11;27.90;99.90
37998;DHT22;24079;51.824;4.682;2023-09-07T17:57:37;27.80;99.90
37998;DHT22;24079;51.824;4.682;2023-09-07T18:00:03;27.70;99.90
37998;DHT22;24079;51.824;4.682;2023-09-07T18:02:30;27.60;99.90
37998;DHT22;24079;51.824;4.682;2023-09-07T18:04:57;27.50;99.90
37998;DHT22;24079;51.824;4.682;2023-09-07T18:07:23;27.40;99.90
37998;DHT22;24079;51.824;4.682;2023-09-07T18:09:49;27.40;99.90
37998;DHT22;24079;51.824;4.682;2023-09-07T18:12:16;27.30;99.90
37998;DHT22;24079;51.824;4.682;2023-09-07T18:14:42;27.30;99.90
37998;DHT22;24079;51.824;4.682;2023-09-07T18:17:07;27.20;99.90
37998;DHT22;24079;51.824;4.682;2023-09-07T18:19:33;27.10;99.90
37998;DHT22;24079;51.824;4.682;2023-09-07T18:21:59;27.00;99.90
37998;DHT22;24079;51.824;4.682;2023-09-07T18:24:25;26.90;99.90
37998;DHT22;24079;51.824;4.682;2023-09-07T18:26:50;26.80;99.90
37998;DHT22;24079;51.824;4.682;2023-09-07T18:29:17;26.80;99.90
37998;DHT22;24079;51.824;4.682;2023-09-07T18:31:43;26.70;99.90
37998;DHT22;24079;51.824;4.682;2023-09-07T18:34:09;26.60;99.90
37998;DHT22;24079;51.824;4.682;2023-09-07T18:36:34;26.60;99.90
37998;DHT22;24079;51.824;4.682;2023-09-07T18:39:00;26.50;99.90
37998;DHT22;24079;51.824;4.682;2023-09-07T18:41:26;26.50;99.90
37998;DHT22;24079;51.824;4.682;2023-09-07T18:43:51;26.50;99.90
37998;DHT22;24079;51.824;4.682;2023-09-07T18:46:17;26.40;99.90
37998;DHT22;24079;51.824;4.682;2023-09-07T18:48:43;26.40;99.90
37998;DHT22;24079;51.824;4.682;2023-09-07T18:51:08;26.30;99.90
37998;DHT22;24079;51.824;4.682;2023-09-07T18:53:35;26.30;99.90
37998;DHT22;24079;51.824;4.682;2023-09-07T18:56:05;26.20;99.90
37998;DHT22;24079;51.824;4.682;2023-09-07T18:58:31;26.20;99.90
37998;DHT22;24079;51.824;4.682;2023-09-07T19:00:57;26.10;99.90
37998;DHT22;24079;51.824;4.682;2023-09-07T19:03:23;26.10;99.90
37998;DHT22;24079;51.824;4.682;2023-09-07T19:05:49;26.00;99.90
37998;DHT22;24079;51.824;4.682;2023-09-07T19:08:15;25.90;99.90
37998;DHT22;24079;51.824;4.682;2023-09-07T19:10:41;25.90;99.90
37998;DHT22;24079;51.824;4.682;2023-09-07T19:13:06;25.80;99.90
37998;DHT22;24079;51.824;4.682;2023-09-07T19:15:32;25.80;99.90
37998;DHT22;24079;51.824;4.682;2023-09-07T19:17:58;25.70;99.90
37998;DHT22;24079;51.824;4.682;2023-09-07T19:20:23;25.70;99.90
37998;DHT22;24079;51.824;4.682;2023-09-07T19:22:49;25.70;99.90
37998;DHT22;24079;51.824;4.682;2023-09-07T19:25:15;25.60;99.90
37998;DHT22;24079;51.824;4.682;2023-09-07T19:27:41;25.60;99.90
37998;DHT22;24079;51.824;4.682;2023-09-07T19:30:08;25.50;99.90
37998;DHT22;24079;51.824;4.682;2023-09-07T19:32:34;25.50;99.90
37998;DHT22;24079;51.824;4.682;2023-09-07T19:35:00;25.40;99.90
37998;DHT22;24079;51.824;4.682;2023-09-07T19:37:30;25.40;99.90
37998;DHT22;24079;51.824;4.682;2023-09-07T19:39:55;25.30;99.90
37998;DHT22;24079;51.824;4.682;2023-09-07T19:42:21;25.20;99.90
37998;DHT22;24079;51.824;4.682;2023-09-07T19:44:47;25.20;99.90
37998;DHT22;24079;51.824;4.682;2023-09-07T19:47:14;25.20;99.90
37998;DHT22;24079;51.824;4.682;2023-09-07T19:49:40;25.10;99.90
37998;DHT22;24079;51.824;4.682;2023-09-07T19:52:07;25.10;99.90
37998;DHT22;24079;51.824;4.682;2023-09-07T19:54:33;25.00;99.90
37998;DHT22;24079;51.824;4.682;2023-09-07T19:56:59;25.00;99.90
37998;DHT22;24079;51.824;4.682;2023-09-07T19:59:25;25.00;99.90
37998;DHT22;24079;51.824;4.682;2023-09-07T20:01:56;24.90;99.90
37998;DHT22;24079;51.824;4.682;2023-09-07T20:04:24;24.90;99.90
37998;DHT22;24079;51.824;4.682;2023-09-07T20:06:51;24.80;99.90
37998;DHT22;24079;51.824;4.682;2023-09-07T20:09:17;24.80;99.90
37998;DHT22;24079;51.824;4.682;2023-09-07T20:11:44;24.80;99.90
37998;DHT22;24079;51.824;4.682;2023-09-07T20:14:10;24.70;99.90
37998;DHT22;24079;51.824;4.682;2023-09-07T20:16:36;24.70;99.90
37998;DHT22;24079;51.824;4.682;2023-09-07T20:19:01;24.60;99.90
37998;DHT22;24079;51.824;4.682;2023-09-07T20:21:27;24.60;99.90
37998;DHT22;24079;51.824;4.682;2023-09-07T20:23:53;24.60;99.90
37998;DHT22;24079;51.824;4.682;2023-09-07T20:26:18;24.50;99.90
37998;DHT22;24079;51.824;4.682;2023-09-07T20:28:44;24.50;99.90
37998;DHT22;24079;51.824;4.682;2023-09-07T20:31:13;24.50;99.90
37998;DHT22;24079;51.824;4.682;2023-09-07T20:33:39;24.40;99.90
37998;DHT22;24079;51.824;4.682;2023-09-07T20:36:05;24.40;99.90